NWS Home NWS Lubbock West Texas Mesonet Day over Day changes as of 1132 AM, Sun Nov 18, 2018

Latest   N   C   S   Daily Sum   3hrΔ   24hrΔ   Soil Data 
Site Map   24hr Precip   72hr Precip   Google Plot


Station Time of Last Temp Today Temp Yesterday Delta-T Dewpoint Today Dewpoint Yesterday Delta-Td Delta-Pressure (mB)
Reese Center  11:25 AM 32.8 45.9 -13.1 27.1 32.5 -5.5 6.9
Abernathy  11:25 AM 32.3 43 -10.7 28.1 34.3 -6.2 7
Plainview  11:25 AM 31.8 43.4 -11.6 26.9 34.3 -7.4 6.8
Tahoka  11:25 AM 34.5 52.2 -17.8 26.7 32.5 -5.8 7.7
Slaton  11:25 AM 34.3 50 -15.7 26.9 34.2 -7.3 7.7
Levelland  11:25 AM 33.5 46.4 -12.9 26.3 32.2 -5.8 6.5
Roaring Springs  11:25 AM 33.5 51.7 -18.2 27.2 36 -8.8 8.4
Floydada  11:25 AM 33.7 45.6 -11.9 25.4 32.9 -7.5 7.2
Ralls  11:25 AM 34.5 48.4 -13.9 25.7 33.1 -7.4 7.7
Brownfield  11:25 AM 33.2 48.4 -15.2 25.7 32.8 -7.1 7.5
Muleshoe  11:25 AM 32.1 42 -9.8 27.3 32.3 -5 5.3
Morton  11:25 AM 33.8 45.9 -12.1 25.5 31.2 -5.8 5.9
O'Donnell  11:25 AM 34.7 52.8 -18.1 25.7 31.1 -5.5 8
Seagraves  11:25 AM 33.6 50.1 -16.5 26.1 32.4 -6.3 7.5
Amherst  11:25 AM 31.5 43.2 -11.7 26.7 31.7 -5 6.1
Plains  11:25 AM 32.4 48 -15.7 25.7 31.6 -5.9 6.7
Lamesa  11:25 AM 34.4 53.2 -18.7 27.3 31.1 -3.7 8.1
Hart  11:25 AM 29.8 41.2 -11.4 27.8 32.8 -5 6.1
Friona  11:25 AM 28.7 38.1 -9.3 27.6 31.7 -4.1 4.9
Dimmitt  11:25 AM 28.5 38.3 -9.8 27.3 31.9 -4.7 5.4
Tulia  11:25 AM 30.4 40 -9.7 24.8 31.8 -7 6.2
Silverton  11:25 AM 32.4 45.1 -12.7 25 33.4 -8.4 7.3
Post  11:25 AM 37.1 53.9 -16.8 26.7 31.8 -5.1 8.5
Seminole  11:25 AM 33.8 52.3 -18.5 25.9 30.8 -5 7.2
Gail  11:25 AM 35.6 56.4 -20.8 25.7 28.5 -2.8 8.9
White River Lake  11:25 AM 35.7 51.8 -16.1 25.6 33.4 -7.8 8.5
Graham  11:25 AM 34.2 50.9 -16.7 27.7 33 -5.3 8.2
Sundown  11:25 AM 33.2 47.8 -14.5 25.6 31.9 -6.3 6.5
Anton  11:25 AM 32.8 44.3 -11.5 28.8 33.9 -5.1 6.7
Fluvanna  11:25 AM 33.6 55.7 -22 25.6 28.9 -3.3 8.7
Spur  11:25 AM 36.5 54.5 -17.9 25.8 31.9 -6.1 9.2
Northwest Lubbock  11:25 AM 34.7 47.2 -12.5 27.8 32.5 -4.7 7.1
Guthrie  11:25 AM 36.2 58.9 -22.7 25.5 29.4 -3.9 9.7
Clarendon  11:25 AM 32 43.2 -11.2 24.9 33.7 -8.8 7.1
Paducah  11:25 AM 35.3 56 -20.7 26.2 35.3 -9.2 9.4
Snyder  11:25 AM 36.1 58.8 -22.7 27.8 34.1 -6.3 9
Memphis  11:25 AM 34.3 50.2 -15.9 26.6 36.8 -10.2 8.8
Jayton  11:25 AM 36.3 59.6 -23.3 27.1 29.8 -2.8 9.9
Pampa  11:25 AM 27.1 34.4 -7.3 26.3 32.3 -6 5.7
Aspermont  11:25 AM 36.5 60.9 -24.4 26.8 36.6 -9.8 10.3
Hereford  11:25 AM 29 37.2 -8.1 27.8 30 -2.2 4.8
Goodlett  11:25 AM 33.7 55.3 -21.6 23.9 30.9 -7 10.5
McLean  11:25 AM 29.7 39.2 -9.5 24.3 33.2 -8.9 6.9
Denver City  11:25 AM 31.5 49.1 -17.6 25.4 30.5 -5.1 7
Lake Alan Henry  11:25 AM 36.6 56.5 -19.9 28.8 33.1 -4.4 9.1
Wolfforth  11:25 AM 33.7 47.2 -13.5 27.9 33.5 -5.7 7.1
Andrews  11:25 AM 34.9 57.9 -23 26.7 24.6 2 7.9
Turkey  11:25 AM 33.5 47.4 -13.9 24.4 34.4 -10 8.3
Childress  11:25 AM 34.2 52.5 -18.3 24.8 33.4 -8.6 9.4
Tatum  11:25 AM 31 48.3 -17.4 25.2 30.7 -5.5 6.1
Northfield  11:25 AM 35.9 53.2 -17.2 24.4 33.8 -9.4 9
Dora  11:25 AM 27.6 46.1 -18.6 23.3 30.1 -6.8 5.2
Northwest San Angelo  11:25 AM 40.5 64.6 -24.1 28.5 42.2 -13.7 8.3
Saint Lawrence  11:25 AM 38.1 62.8 -24.7 29 31.4 -2.4 7.9
Haskell  11:25 AM 35.4 58.4 -23 26.9 37.5 -10.6 9.9
Wall  11:25 AM 40.5 65.7 -25.2 30.6 46.3 -15.7 8.3
Seymour  11:25 AM 35.4 59.1 -23.7 26.4 38 -11.6 10.3
Knox City  11:25 AM 37.3 59.9 -22.6 26.5 37.8 -11.3 10.6
Guadalupe Mtns Park  11:25 AM 27.9 57.8 -29.9 27.6 11.3 16.2 4.1
Caprock Canyons   11:25 AM 32.9 45.1 -12.2 25.6 34.4 -8.8 8
Odell  11:25 AM 34.4 59.2 -24.8 24.9 35.3 -10.4 10.7
Coyanosa  11:25 AM 38.6 62.5 -23.9 29.1 25.2 3.9 9.1
Big Lake  11:25 AM 40.9 61.9 -21 32.3 37.5 -5.2 7.1
Junction  11:25 AM 43.8 66.1 -22.3 35.6 48.7 -13 6.9
Hobbs  11:25 AM 31.9 50.2 -18.3 26 30.3 -4.3 7
Canadian  11:25 AM 29.9 36.4 -6.6 25.2 31.3 -6.1 5.8
Palo Duro Canyon State Park Rim  11:25 AM 30.6 37.6 -7 25 31 -6.1 5.7
Bootleg  11:25 AM 25.8 36.6 -10.8 24.9 29.5 -4.7 4.2
Sterling City  11:25 AM 38.2 65.1 -26.9 28.3 34 -5.6 8.8
Mertzon  11:25 AM 41.2 64.7 -23.5 30.4 40.3 -9.8 8.3
Persimmon Gap  11:25 AM 49.9 62 -12.1 37.4 26.2 11.2 3.9
Weinert  11:25 AM 35.9 59.3 -23.4 25.8 38 -12.2 10.2
Claude 12 Southwest  11:25 AM 29.9 37.1 -7.2 25.7 31.8 -6.1 6
Amarillo 7 South Southeast  11:25 AM 29.4 36.8 -7.4 27.1 31.5 -4.4 5.3
Umbarger  11:25 AM 28.6 36.1 -7.6 26.6 31.4 -4.8 4.9
Lomax  11:25 AM 38.4 60.5 -22.2 27.8 27.5 0.3 9
Amarillo 9 North Northeast  11:25 AM 29.6 35.9 -6.3 24.8 31.2 -6.3 5
Aiken 3 West Southwest  11:25 AM 31.4 44.1 -12.7 25.7 34.5 -8.8 6.8
Sweetwater  11:25 AM 34.2 62.2 -28 28.6 38.3 -9.6 8.9
Dozier  11:25 AM 33 46.9 -14 25.2 36.6 -11.4 8.3
Amarillo 15 North Northwest  11:25 AM 30.7 36.8 -6.1 25.4 32 -6.5 4.8
Menard  11:25 AM 44.2 65.9 -21.7 33.5 48.3 -14.7 7
Tarzan  11:25 AM 34.9 56.9 -22 27 27.6 -0.6 8.5
Goodnight  11:25 AM 30.6 39.8 -9.2 25.6 33.2 -7.6 6.5
Boys Ranch   11:25 AM 31.2 37.9 -6.8 25.2 31 -5.8 4.3
Fort McKavett  11:25 AM 44.1 65.3 -21.2 33.5 48.2 -14.6 6.6
Fort Chadbourne  11:25 AM 39.1 61.7 -22.6 28.5 41.9 -13.4 8.3
Palo Duro Canyon State Park Floor  11:25 AM 33.8 41.1 -7.3 25.9 32.6 -6.7 6
Fort Lancaster  11:25 AM 44.2 61.6 -17.5 33.9 37.1 -3.2 7.4
Dell City 1N  11:25 AM 44.5 54 -9.5 31.1 22.1 9 4.3
Clyde  11:25 AM 35.4 61.2 -25.8 27.1 41.8 -14.7 8.6
Snyder SSW  11:25 AM 35.1 57.5 -22.4 26.6 33.8 -7.2 9.1
Panhandle  11:25 AM 27.6 34.9 -7.3 26 31.8 -5.8 5.6
Vigo Park  11:25 AM 31.3 41.5 -10.2 25.4 32.8 -7.4 6.4
Welch  11:25 AM 35.1 51.5 -16.4 26.9 33.4 -6.5 7.9
Throckmorton  11:25 AM 36.5 64.6 -28.1 26.9 41.2 -14.3 10
Sierra Blanca  11:25 AM 43.1 61.5 -18.4 30.5 18.4 12.1 2.6
Fort Lewis CO  11:25 AM 43.4 46.8 -3.4 13.6 15.9 -2.3 1
New Home  11:25 AM 33.9 49.6 -15.7 27.4 34.7 -7.3 7.3
McCamey  11:25 AM 41.4 64.6 -23.1 30.6 31 -0.4 8.2
Stamford  11:25 AM 36.5 63 -26.5 28.2 40.9 -12.7 10.5
Crowell  11:25 AM 36.2 61 -24.8 25.6 34.6 -9.1 10.7
Stinnett  11:25 AM 28.1 33.1 -5.1 25.3 30.4 -5.2 4.6
Colorado City  11:25 AM 36.2 62.5 -26.4 26.7 33.3 -6.6 9.6
Happy  11:25 AM 30.4 38.5 -8.1 27 32.3 -5.3 5.8
Endee  11:25 AM 28.4 39.6 -11.2 24 30.8 -6.8 4.4
JA Ranch  11:25 AM 34.2 44.9 -10.7 25.4 33.9 -8.5 7.2
Adrian  11:25 AM 26.7 35.8 -9.1 25.7 30.7 -5 3.9
Lesley  11:25 AM 36.8 51.5 -14.7 25.5 35.3 -9.8 8.3
Earth  11:25 AM 32 41.8 -9.8 26.7 31.2 -4.5 5.7
Van Horn  11:25 AM 41.3 59.8 -18.5 30.3 16.7 13.6 4.6
Rotan  11:25 AM 36.2 61.3 -25 27.3 34.1 -6.8 9.6
Fritch  11:25 AM 30.3 35.2 -4.9 24.1 31.3 -7.2 5.1
Estelline  11:25 AM 35.6 52.8 -17.2 25.4 32.9 -7.6 9.2
Crane  11:25 AM 39.8 63.7 -23.9 29.6 23.1 6.5 8.2
Hackberry  11:25 AM 35 56.2 -21.2 24.8 34.8 -10 9.8
Romero 11SSW  11:25 AM 30.5 40 -9.5 23.9 30.7 -6.8 3.9
Olton  11:25 AM 30.5 43 -12.5 26.7 32.3 -5.6 6.4

West Texas Mesonet Home   Site Map/Menu  NWS Lubbock Soil Data  Daily Summary Page  24hr Precip  72hr Precip  Google Plot